createdAt,value
2023-04-12T00:01:12.708Z,8.20
2023-04-12T00:03:39.909Z,8.16
2023-04-12T00:06:07.952Z,8.14
2023-04-12T00:08:35.140Z,8.18
2023-04-12T00:11:03.742Z,8.14
2023-04-12T00:13:31.194Z,8.05
2023-04-12T00:15:58.960Z,8.09
2023-04-12T00:18:26.304Z,8.08
2023-04-12T00:20:55.817Z,8.08
2023-04-12T00:23:22.983Z,8.04
2023-04-12T00:25:50.618Z,8.01
2023-04-12T00:28:17.929Z,7.94
2023-04-12T00:30:45.997Z,7.98
2023-04-12T00:33:13.176Z,7.88
2023-04-12T00:35:40.684Z,7.94
2023-04-12T00:38:10.851Z,7.96
2023-04-12T00:40:43.225Z,7.95
2023-04-12T00:43:15.316Z,7.97
2023-04-12T00:45:42.864Z,7.91
2023-04-12T00:48:10.936Z,7.97
2023-04-12T00:50:41.634Z,7.97
2023-04-12T00:53:11.787Z,7.83
2023-04-12T00:55:45.627Z,7.91
2023-04-12T00:58:14.412Z,8.00
2023-04-12T01:00:44.834Z,7.97
2023-04-12T01:03:13.782Z,7.92
2023-04-12T01:06:10.479Z,7.90
2023-04-12T01:09:19.059Z,7.86
2023-04-12T01:12:30.574Z,7.77
2023-04-12T01:15:12.072Z,7.76
2023-04-12T01:18:09.702Z,7.74
2023-04-12T01:20:45.091Z,7.72
2023-04-12T01:23:47.828Z,7.73
2023-04-12T01:26:44.235Z,7.74
2023-04-12T01:29:15.593Z,7.75
2023-04-12T01:31:53.035Z,7.72
2023-04-12T01:34:26.318Z,7.78
2023-04-12T01:36:55.662Z,7.81
2023-04-12T01:39:23.356Z,7.78
2023-04-12T01:41:50.869Z,7.68
2023-04-12T01:44:19.209Z,7.59
2023-04-12T01:46:48.010Z,7.61
2023-04-12T01:49:18.166Z,7.67
2023-04-12T01:51:58.373Z,7.66
2023-04-12T01:54:30.974Z,7.68
2023-04-12T01:57:03.819Z,7.65
2023-04-12T01:59:40.940Z,7.67
2023-04-12T02:02:11.985Z,7.60
2023-04-12T02:04:42.788Z,7.59
2023-04-12T02:07:09.960Z,7.49
2023-04-12T02:09:38.764Z,7.47
2023-04-12T02:12:07.519Z,7.51
2023-04-12T02:14:36.780Z,7.45
2023-04-12T02:17:05.418Z,7.43
2023-04-12T02:19:33.313Z,7.43
2023-04-12T02:22:02.377Z,7.39
2023-04-12T02:24:30.347Z,7.43
2023-04-12T02:26:59.103Z,7.43
2023-04-12T02:29:27.347Z,7.40
2023-04-12T02:31:54.444Z,7.39
2023-04-12T02:34:24.238Z,7.42
2023-04-12T02:36:59.216Z,7.50
2023-04-12T02:39:29.141Z,7.47
2023-04-12T02:41:56.962Z,7.42
2023-04-12T02:44:24.875Z,7.39
2023-04-12T02:47:08.454Z,7.46
2023-04-12T02:49:36.647Z,7.45
2023-04-12T02:52:04.913Z,7.40
2023-04-12T02:54:40.283Z,7.41
2023-04-12T02:57:12.764Z,7.40
2023-04-12T02:59:46.548Z,7.48
2023-04-12T03:02:25.965Z,7.44
2023-04-12T03:04:58.760Z,7.46
2023-04-12T03:07:38.709Z,7.47
2023-04-12T03:10:07.923Z,7.49
2023-04-12T03:12:39.732Z,7.48
2023-04-12T03:15:15.892Z,7.50
2023-04-12T03:17:47.171Z,7.48
2023-04-12T03:20:17.178Z,7.42
2023-04-12T03:22:51.658Z,7.39
2023-04-12T03:25:19.162Z,7.37
2023-04-12T03:27:53.466Z,7.39
2023-04-12T03:30:25.526Z,7.38
2023-04-12T03:32:55.705Z,7.34
2023-04-12T03:35:23.703Z,7.32
2023-04-12T03:37:52.233Z,7.28
2023-04-12T03:40:19.549Z,7.28
2023-04-12T03:42:55.020Z,7.30
2023-04-12T03:45:22.491Z,7.32
2023-04-12T03:47:52.954Z,7.31
2023-04-12T03:50:22.438Z,7.31
2023-04-12T03:52:55.967Z,7.27
2023-04-12T03:55:29.100Z,7.24
2023-04-12T03:57:57.743Z,7.23
2023-04-12T04:00:34.334Z,7.23
2023-04-12T04:03:09.601Z,7.20
2023-04-12T04:05:58.475Z,7.19
2023-04-12T04:08:27.392Z,7.19
2023-04-12T04:11:00.876Z,7.12
2023-04-12T04:13:33.910Z,7.10
2023-04-12T04:16:09.821Z,7.16
2023-04-12T04:18:38.696Z,7.17
2023-04-12T04:21:08.966Z,7.19
2023-04-12T04:23:39.695Z,7.17
2023-04-12T04:26:11.790Z,7.20
2023-04-12T04:28:47.029Z,7.25
2023-04-12T04:31:19.072Z,7.28
2023-04-12T04:33:50.797Z,7.27
2023-04-12T04:36:20.656Z,7.24
2023-04-12T04:38:52.736Z,7.15
2023-04-12T04:41:39.358Z,7.16
2023-04-12T04:44:09.410Z,7.22
2023-04-12T04:46:39.659Z,7.23
2023-04-12T04:49:07.108Z,7.22
2023-04-12T04:51:34.537Z,7.20
2023-04-12T04:54:04.215Z,7.16
2023-04-12T04:56:32.734Z,7.14
2023-04-12T04:59:00.067Z,7.18
2023-04-12T05:01:32.008Z,7.17
2023-04-12T05:04:04.358Z,7.17
2023-04-12T05:06:32.428Z,7.20
2023-04-12T05:09:02.303Z,7.17
2023-04-12T05:11:33.318Z,7.17
2023-04-12T05:16:52.637Z,7.19
2023-04-12T05:19:19.701Z,7.19
2023-04-12T05:21:47.407Z,7.19
2023-04-12T05:24:14.582Z,7.20
2023-04-12T05:26:45.222Z,7.22
2023-04-12T05:29:14.408Z,7.17
2023-04-12T05:31:42.611Z,7.15
2023-04-12T05:34:18.895Z,7.09
2023-04-12T05:36:53.003Z,7.09
2023-04-12T05:39:22.425Z,7.08
2023-04-12T05:41:51.743Z,7.06
2023-04-12T05:44:19.260Z,7.04
2023-04-12T05:46:47.812Z,7.06
2023-04-12T05:49:16.151Z,7.07
2023-04-12T05:51:43.565Z,7.03
2023-04-12T05:54:21.236Z,7.05
2023-04-12T05:56:54.345Z,7.10
2023-04-12T05:59:22.657Z,7.10
2023-04-12T06:01:50.419Z,7.08
2023-04-12T06:04:20.182Z,7.08
2023-04-12T06:06:47.941Z,7.10
2023-04-12T06:09:15.555Z,7.14
2023-04-12T06:11:44.414Z,7.15
2023-04-12T06:14:11.992Z,7.12
2023-04-12T06:16:41.748Z,7.13
2023-04-12T06:19:09.075Z,7.16
2023-04-12T06:21:36.684Z,7.23
2023-04-12T06:24:04.063Z,7.26
2023-04-12T06:26:39.014Z,7.23
2023-04-12T06:29:07.306Z,7.26
2023-04-12T06:31:35.489Z,7.29
2023-04-12T06:34:03.252Z,7.28
2023-04-12T06:36:31.411Z,7.28
2023-04-12T06:38:58.789Z,7.31
2023-04-12T06:41:26.247Z,7.38
2023-04-12T06:44:00.522Z,7.42
2023-04-12T06:46:30.128Z,7.46
2023-04-12T06:48:57.548Z,7.47
2023-04-12T06:51:25.278Z,7.48
2023-04-12T06:53:52.388Z,7.47
2023-04-12T06:56:19.790Z,7.49
2023-04-12T06:58:46.838Z,7.53
2023-04-12T07:01:14.578Z,7.57
2023-04-12T07:03:41.882Z,7.60
2023-04-12T07:06:21.812Z,7.62
2023-04-12T07:08:52.423Z,7.68
2023-04-12T07:11:22.536Z,7.74
2023-04-12T07:13:51.407Z,7.77
2023-04-12T07:16:19.166Z,7.79
2023-04-12T07:18:46.518Z,7.84
2023-04-12T07:21:14.529Z,7.86
2023-04-12T07:23:41.728Z,7.94
2023-04-12T07:26:09.202Z,7.97
2023-04-12T07:28:36.453Z,8.05
2023-04-12T07:31:07.800Z,8.12
2023-04-12T07:33:36.549Z,8.17
2023-04-12T07:36:04.852Z,8.22
2023-04-12T07:38:32.139Z,8.29
2023-04-12T07:41:00.008Z,8.37
2023-04-12T07:43:27.336Z,8.44
2023-04-12T07:45:56.247Z,8.51
2023-04-12T07:48:23.491Z,8.59
2023-04-12T07:50:51.332Z,8.61
2023-04-12T07:53:24.683Z,8.69
2023-04-12T07:55:53.024Z,8.75
2023-04-12T07:58:21.867Z,8.83
2023-04-12T08:00:50.451Z,8.93
2023-04-12T08:03:19.418Z,9.01
2023-04-12T08:05:53.159Z,9.07
2023-04-12T08:08:22.038Z,9.19
2023-04-12T08:10:50.596Z,9.27
2023-04-12T08:13:18.775Z,9.39
2023-04-12T08:15:47.305Z,9.49
2023-04-12T08:18:15.520Z,9.63
2023-04-12T08:20:45.800Z,9.79
2023-04-12T08:23:13.020Z,9.95
2023-04-12T08:25:41.744Z,10.09
2023-04-12T08:28:09.145Z,10.18
2023-04-12T08:30:36.742Z,10.33
2023-04-12T08:33:05.512Z,10.59
2023-04-12T08:35:33.812Z,10.73
2023-04-12T08:38:07.221Z,10.84
2023-04-12T08:40:35.745Z,10.96
2023-04-12T08:43:12.299Z,11.13
2023-04-12T08:45:39.865Z,11.40
2023-04-12T08:48:07.079Z,11.61
2023-04-12T08:50:34.619Z,11.74
2023-04-12T08:53:02.516Z,11.90
2023-04-12T08:55:30.541Z,11.97
2023-04-12T08:57:59.032Z,12.10
2023-04-12T09:00:27.384Z,12.23
2023-04-12T09:02:54.788Z,12.37
2023-04-12T09:05:30.137Z,12.54
2023-04-12T09:07:58.497Z,12.87
2023-04-12T09:10:38.547Z,13.28
2023-04-12T09:13:06.748Z,13.32
2023-04-12T09:15:35.732Z,13.52
2023-04-12T09:18:11.644Z,13.91
2023-04-12T09:20:40.220Z,14.08
2023-04-12T09:23:26.841Z,14.77
2023-04-12T09:25:54.308Z,14.70
2023-04-12T09:28:30.057Z,14.99
2023-04-12T09:30:59.499Z,14.98
2023-04-12T09:33:38.846Z,14.93
2023-04-12T09:36:14.198Z,15.18
2023-04-12T09:38:58.570Z,15.36
2023-04-12T09:41:27.545Z,15.47
2023-04-12T09:43:55.017Z,15.60
2023-04-12T09:46:23.348Z,15.68
2023-04-12T09:49:03.315Z,15.75
2023-04-12T09:51:34.117Z,15.63
2023-04-12T09:54:04.482Z,15.76
2023-04-12T09:56:37.846Z,16.01
2023-04-12T09:59:07.133Z,16.14
2023-04-12T10:01:41.171Z,16.51
2023-04-12T10:04:10.146Z,16.51
2023-04-12T10:06:38.663Z,16.52
2023-04-12T10:09:08.942Z,16.51
2023-04-12T10:11:40.507Z,16.56
2023-04-12T10:14:09.950Z,16.58
2023-04-12T10:16:41.815Z,16.63
2023-04-12T10:19:13.084Z,16.80
2023-04-12T10:21:41.061Z,16.82
2023-04-12T10:24:09.786Z,16.81
2023-04-12T10:26:43.823Z,16.88
2023-04-12T10:29:28.394Z,16.91
2023-04-12T10:31:58.764Z,17.03
2023-04-12T10:34:31.395Z,17.11
2023-04-12T10:37:05.736Z,17.08
2023-04-12T10:39:43.508Z,17.11
2023-04-12T10:42:27.849Z,17.10
2023-04-12T10:45:23.245Z,17.14
2023-04-12T10:47:59.213Z,17.24
2023-04-12T10:50:30.387Z,17.28
2023-04-12T10:53:12.716Z,17.36
2023-04-12T10:55:41.212Z,17.34
2023-04-12T10:58:09.325Z,17.28
2023-04-12T11:00:58.862Z,17.26
2023-04-12T11:03:29.018Z,17.27
2023-04-12T11:06:16.219Z,17.23
2023-04-12T11:09:22.210Z,17.25
2023-04-12T11:11:50.498Z,17.22
2023-04-12T11:14:24.406Z,17.15
2023-04-12T11:17:15.186Z,17.15
2023-04-12T11:19:52.359Z,17.15
2023-04-12T11:22:23.469Z,17.09
2023-04-12T11:24:54.420Z,16.87
2023-04-12T11:27:23.886Z,16.93
2023-04-12T11:29:57.357Z,16.78
2023-04-12T11:32:28.624Z,16.74
2023-04-12T11:34:58.518Z,16.71
2023-04-12T11:37:31.351Z,16.70
2023-04-12T11:40:00.111Z,16.67
2023-04-12T11:42:29.690Z,16.71
2023-04-12T11:45:02.393Z,16.75
2023-04-12T11:47:32.328Z,16.69
2023-04-12T11:50:00.062Z,16.73
2023-04-12T11:52:33.865Z,16.74
2023-04-12T11:55:06.502Z,16.88
2023-04-12T11:57:34.589Z,16.94
2023-04-12T12:00:06.907Z,16.90
2023-04-12T12:02:46.657Z,16.94
2023-04-12T12:05:21.550Z,17.07
2023-04-12T12:07:49.621Z,17.14
2023-04-12T12:10:32.497Z,17.19
2023-04-12T12:13:14.104Z,17.17
2023-04-12T12:15:45.845Z,17.24
2023-04-12T12:18:13.356Z,17.29
2023-04-12T12:20:55.666Z,17.25
2023-04-12T12:23:33.451Z,17.29
2023-04-12T12:26:17.550Z,17.37
2023-04-12T12:28:54.393Z,17.43
2023-04-12T12:31:28.423Z,17.53
2023-04-12T12:33:58.949Z,17.62
2023-04-12T12:36:36.227Z,17.70
2023-04-12T12:39:10.511Z,17.78
2023-04-12T12:41:39.812Z,17.87
2023-04-12T12:44:08.155Z,17.89
2023-04-12T12:46:52.043Z,17.88
2023-04-12T12:49:22.777Z,17.97
2023-04-12T12:51:51.464Z,18.01
2023-04-12T12:54:36.035Z,17.99
2023-04-12T12:57:06.540Z,18.04
2023-04-12T12:59:33.648Z,18.06
2023-04-12T13:02:01.604Z,18.08
2023-04-12T13:04:29.248Z,18.10
2023-04-12T13:06:56.792Z,18.13
2023-04-12T13:09:23.946Z,18.15
2023-04-12T13:11:51.575Z,18.20
2023-04-12T13:14:18.744Z,18.24
2023-04-12T13:16:48.407Z,18.23
2023-04-12T13:19:16.153Z,18.20
2023-04-12T13:21:43.567Z,18.19
2023-04-12T13:24:11.217Z,18.26
2023-04-12T13:26:38.984Z,18.30
2023-04-12T13:29:06.421Z,18.34
2023-04-12T13:31:33.933Z,18.35
2023-04-12T13:34:03.380Z,18.38
2023-04-12T13:36:31.046Z,18.39
2023-04-12T13:38:58.229Z,18.40
2023-04-12T13:41:26.237Z,18.40
2023-04-12T13:43:53.284Z,18.39
2023-04-12T13:46:21.189Z,18.40
2023-04-12T13:48:48.370Z,18.40
2023-04-12T13:51:15.895Z,18.39
2023-04-12T13:53:42.990Z,18.37
2023-04-12T13:56:12.042Z,18.41
2023-04-12T13:58:41.899Z,18.46
2023-04-12T14:01:10.266Z,18.50
2023-04-12T14:03:37.604Z,18.51
2023-04-12T14:06:07.509Z,18.55
2023-04-12T14:08:34.677Z,18.60
2023-04-12T14:11:06.460Z,18.67
2023-04-12T14:13:33.717Z,18.81
2023-04-12T14:16:01.118Z,18.87
2023-04-12T14:18:28.457Z,18.94
2023-04-12T14:20:57.612Z,19.04
2023-04-12T14:23:26.118Z,19.04
2023-04-12T14:25:54.308Z,19.01
2023-04-12T14:28:21.913Z,18.95
2023-04-12T14:30:51.998Z,18.85
2023-04-12T14:33:19.584Z,18.72
2023-04-12T14:35:47.212Z,18.65
2023-04-12T14:38:14.481Z,18.51
2023-04-12T14:40:42.108Z,18.70
2023-04-12T14:43:09.407Z,18.83
2023-04-12T14:45:40.055Z,18.77
2023-04-12T14:48:07.464Z,18.78
2023-04-12T14:50:35.055Z,18.83
2023-04-12T14:53:05.452Z,18.80
2023-04-12T14:55:33.151Z,18.90
2023-04-12T14:58:00.376Z,19.07
2023-04-12T15:00:29.828Z,19.19
2023-04-12T15:03:00.929Z,19.22
2023-04-12T15:05:30.563Z,19.27
2023-04-12T15:07:58.745Z,19.33
2023-04-12T15:10:26.662Z,19.46
2023-04-12T15:12:54.333Z,19.53
2023-04-12T15:15:22.557Z,19.94
2023-04-12T15:17:49.812Z,20.33
2023-04-12T15:20:17.394Z,20.49
2023-04-12T15:22:44.616Z,20.60
2023-04-12T15:25:12.179Z,20.66
2023-04-12T15:27:39.463Z,20.56
2023-04-12T15:30:12.837Z,20.22
2023-04-12T15:32:42.525Z,19.96
2023-04-12T15:35:25.393Z,19.90
2023-04-12T15:37:55.140Z,19.96
2023-04-12T15:40:23.083Z,20.13
2023-04-12T15:42:50.649Z,20.34
2023-04-12T15:45:18.212Z,20.34
2023-04-12T15:47:46.021Z,20.11
2023-04-12T15:50:14.155Z,19.90
2023-04-12T15:52:43.104Z,19.67
2023-04-12T15:55:11.582Z,19.55
2023-04-12T15:57:39.187Z,19.39
2023-04-12T16:00:20.669Z,19.32
2023-04-12T16:02:53.703Z,19.24
2023-04-12T16:05:22.320Z,18.52
2023-04-12T16:07:51.122Z,18.25
2023-04-12T16:10:23.837Z,18.03
2023-04-12T16:12:52.831Z,17.90
2023-04-12T16:15:21.678Z,18.14
2023-04-12T16:17:53.527Z,18.17
2023-04-12T16:20:22.174Z,18.05
2023-04-12T16:22:55.068Z,18.09
2023-04-12T16:25:24.501Z,17.87
2023-04-12T16:27:52.347Z,17.74
2023-04-12T16:30:20.140Z,17.71
2023-04-12T16:32:47.783Z,17.68
2023-04-12T16:35:16.484Z,17.57
2023-04-12T16:37:45.485Z,17.30
2023-04-12T16:40:13.408Z,17.15
2023-04-12T16:42:44.691Z,16.99
2023-04-12T16:45:15.849Z,16.73
2023-04-12T16:47:45.857Z,16.35
2023-04-12T16:50:13.842Z,16.30
2023-04-12T16:52:41.959Z,16.28
2023-04-12T16:55:13.370Z,16.30
2023-04-12T16:57:42.824Z,16.35
2023-04-12T17:00:19.596Z,16.50
2023-04-12T17:02:53.198Z,16.34
2023-04-12T17:05:23.087Z,16.24
2023-04-12T17:07:54.131Z,16.07
2023-04-12T17:10:24.562Z,15.99
2023-04-12T17:12:55.524Z,15.95
2023-04-12T17:15:25.311Z,15.91
2023-04-12T17:18:12.133Z,15.79
2023-04-12T17:20:39.574Z,15.72
2023-04-12T17:23:07.327Z,15.62
2023-04-12T17:25:35.762Z,15.52
2023-04-12T17:28:03.436Z,15.44
2023-04-12T17:30:31.405Z,15.40
2023-04-12T17:33:01.359Z,15.30
2023-04-12T17:35:29.866Z,15.23
2023-04-12T17:37:57.558Z,15.19
2023-04-12T17:40:25.048Z,15.15
2023-04-12T17:42:52.430Z,15.05
2023-04-12T17:45:21.746Z,14.98
2023-04-12T17:47:49.651Z,14.89
2023-04-12T17:50:17.279Z,14.81
2023-04-12T17:52:44.575Z,14.67
2023-04-12T17:55:13.235Z,14.57
2023-04-12T17:57:41.822Z,14.46
2023-04-12T18:00:11.832Z,14.36
2023-04-12T18:02:46.734Z,14.29
2023-04-12T18:05:15.433Z,14.18
2023-04-12T18:07:42.681Z,14.07
2023-04-12T18:10:12.614Z,13.98
2023-04-12T18:12:40.887Z,13.88
2023-04-12T18:15:09.526Z,13.75
2023-04-12T18:17:37.279Z,13.66
2023-04-12T18:20:10.132Z,13.55
2023-04-12T18:22:38.778Z,13.46
2023-04-12T18:25:08.073Z,13.39
2023-04-12T18:27:35.655Z,13.29
2023-04-12T18:31:24.801Z,13.18
2023-04-12T18:33:53.579Z,13.07
2023-04-12T18:36:20.954Z,12.98
2023-04-12T18:38:48.747Z,12.92
2023-04-12T18:41:15.982Z,12.84
2023-04-12T18:43:43.501Z,12.77
2023-04-12T18:46:18.780Z,12.73
2023-04-12T18:48:48.169Z,12.61
2023-04-12T18:51:15.845Z,12.50
2023-04-12T18:53:43.830Z,12.35
2023-04-12T18:56:12.208Z,12.29
2023-04-12T18:58:53.802Z,12.24
2023-04-12T19:01:24.962Z,12.22
2023-04-12T19:03:53.014Z,12.10
2023-04-12T19:06:20.297Z,12.01
2023-04-12T19:08:49.688Z,11.97
2023-04-12T19:11:17.000Z,11.93
2023-04-12T19:13:44.912Z,11.85
2023-04-12T19:16:12.715Z,11.76
2023-04-12T19:18:40.322Z,11.73
2023-04-12T19:21:07.899Z,11.68
2023-04-12T19:23:37.174Z,11.68
2023-04-12T19:26:05.559Z,11.69
2023-04-12T19:28:33.065Z,11.63
2023-04-12T19:31:05.449Z,11.59
2023-04-12T19:33:33.143Z,11.53
2023-04-12T19:36:04.491Z,11.47
2023-04-12T19:38:32.128Z,11.42
2023-04-12T19:40:59.168Z,11.36
2023-04-12T19:43:26.610Z,11.31
2023-04-12T19:45:54.047Z,11.25
2023-04-12T19:48:21.682Z,11.19
2023-04-12T19:50:49.037Z,11.13
2023-04-12T19:53:18.147Z,11.08
2023-04-12T19:55:45.424Z,11.02
2023-04-12T19:58:13.674Z,10.95
2023-04-12T20:00:41.250Z,10.90
2023-04-12T20:03:09.523Z,10.82
2023-04-12T20:05:37.551Z,10.74
2023-04-12T20:08:05.007Z,10.70
2023-04-12T20:10:32.759Z,10.63
2023-04-12T20:13:00.447Z,10.55
2023-04-12T20:15:31.332Z,10.50
2023-04-12T20:17:58.926Z,10.44
2023-04-12T20:20:26.307Z,10.38
2023-04-12T20:22:53.621Z,10.35
2023-04-12T20:25:20.919Z,10.33
2023-04-12T20:27:52.201Z,10.28
2023-04-12T20:30:21.161Z,10.22
2023-04-12T20:32:54.192Z,10.16
2023-04-12T20:35:22.132Z,10.09
2023-04-12T20:37:51.199Z,10.02
2023-04-12T20:40:23.181Z,9.95
2023-04-12T20:42:51.370Z,9.90
2023-04-12T20:45:18.823Z,9.86
2023-04-12T20:47:46.581Z,9.84
2023-04-12T20:50:13.948Z,9.82
2023-04-12T20:52:41.739Z,9.78
2023-04-12T20:55:11.030Z,9.73
2023-04-12T20:57:38.641Z,9.67
2023-04-12T21:00:17.517Z,9.63
2023-04-12T21:02:46.307Z,9.54
2023-04-12T21:05:17.662Z,9.47
2023-04-12T21:07:46.629Z,9.40
2023-04-12T21:10:15.028Z,9.34
2023-04-12T21:12:44.845Z,9.31
2023-04-12T21:15:13.188Z,9.26
2023-04-12T21:17:40.608Z,9.23
2023-04-12T21:20:17.434Z,9.21
2023-04-12T21:22:47.453Z,9.16
2023-04-12T21:25:16.508Z,9.10
2023-04-12T21:27:46.229Z,9.07
2023-04-12T21:30:14.538Z,9.05
2023-04-12T21:32:43.086Z,9.00
2023-04-12T21:35:11.313Z,8.94
2023-04-12T21:37:39.909Z,8.89
2023-04-12T21:40:09.452Z,8.87
2023-04-12T21:42:38.055Z,8.81
2023-04-12T21:45:08.565Z,8.80
2023-04-12T21:47:36.630Z,8.73
2023-04-12T21:50:04.449Z,8.70
2023-04-12T21:52:31.846Z,8.66
2023-04-12T21:54:58.971Z,8.61
2023-04-12T21:57:33.332Z,8.56
2023-04-12T22:00:04.502Z,8.53
2023-04-12T22:02:40.438Z,8.49
2023-04-12T22:05:08.570Z,8.42
2023-04-12T22:07:40.771Z,8.39
2023-04-12T22:10:09.353Z,8.31
2023-04-12T22:12:37.338Z,8.27
2023-04-12T22:15:05.772Z,8.21
2023-04-12T22:17:33.408Z,8.17
2023-04-12T22:20:00.844Z,8.13
2023-04-12T22:22:29.220Z,8.12
2023-04-12T22:24:56.451Z,8.05
2023-04-12T22:27:26.347Z,8.04
2023-04-12T22:29:53.690Z,7.97
2023-04-12T22:32:21.151Z,7.93
2023-04-12T22:34:57.764Z,7.91
2023-04-12T22:37:34.049Z,7.87
2023-04-12T22:40:06.391Z,7.82
2023-04-12T22:42:33.834Z,7.81
2023-04-12T22:45:00.979Z,7.77
2023-04-12T22:47:30.604Z,7.69
2023-04-12T22:50:02.290Z,7.68
2023-04-12T22:52:33.486Z,7.64
2023-04-12T22:55:00.786Z,7.59
2023-04-12T22:57:28.477Z,7.56
2023-04-12T22:59:55.691Z,7.52
2023-04-12T23:02:23.413Z,7.46
2023-04-12T23:04:51.823Z,7.40
2023-04-12T23:07:19.274Z,7.33
2023-04-12T23:09:46.467Z,7.29
2023-04-12T23:12:14.388Z,7.22
2023-04-12T23:14:41.574Z,7.17
2023-04-12T23:17:08.997Z,7.13
2023-04-12T23:19:36.266Z,7.04
2023-04-12T23:22:04.983Z,7.01
2023-04-12T23:24:32.102Z,6.97
2023-04-12T23:27:00.380Z,6.92
2023-04-12T23:29:28.276Z,6.89
2023-04-12T23:31:55.712Z,6.84
2023-04-12T23:34:22.935Z,6.80
2023-04-12T23:36:50.558Z,6.77
2023-04-12T23:39:18.187Z,6.75
2023-04-12T23:41:46.670Z,6.73
2023-04-12T23:44:14.267Z,6.68
2023-04-12T23:46:41.965Z,6.67
2023-04-12T23:49:09.287Z,6.63
2023-04-12T23:51:36.962Z,6.59
2023-04-12T23:54:04.290Z,6.56
2023-04-12T23:56:32.028Z,6.52
2023-04-12T23:58:59.130Z,6.51
